PWSweather.com
Personal Weather Stations
Station Observations
WISCHPK61
Green Bay Schmitt Park, Green Bay, WI 54311

Green Bay Schmitt ParkGreen Bay, WI 54311

Lat: 44.514277, Lon: -87.935067

Elevation: 735

Station Type: Acu Rite Pro Weather Center model 02032C

http://greenbayweathercam.com

High Low Average
Temperature 25.6°F-3.6°C 19.2°F-7.1°C 21.3°F-5.9°C
Dew Point 25.4°F-3.7°C 18.6°F-7.4°C 20.9°F-6.2°C
Winds Calm Calm Calm Calm Calm SCalm S
Wind Gusts -- -- --
Humidity 99% 96% 99%
Pressure 29.37 in994.6 mb 29.25 in990.5 mb -
Precipitation 0.00 in0.0 mm - -
Hour Temp Dew Point Humidity Winds Wind Gusts Pressure Precip Precip Rate Daily Precip Total
12:00 AM 20.3°F-6.5°C 20.1°F-6.6°C 99% Calm Calm -- 29.31 in992.6 mb - 0.00 in0.0 mm 0.00 in0.0 mm
01:00 AM 19.6°F-6.9°C 19.1°F-7.2°C 98% Calm Calm -- 29.29 in991.9 mb - 0.00 in0.0 mm 0.00 in0.0 mm
02:00 AM 19.6°F-6.9°C 18.6°F-7.4°C 96% Calm Calm -- 29.28 in991.5 mb - 0.00 in0.0 mm 0.00 in0.0 mm
03:00 AM 19.6°F-6.9°C 19.4°F-7.0°C 99% Calm Calm -- 29.27 in991.2 mb - 0.00 in0.0 mm 0.00 in0.0 mm
04:00 AM 20.3°F-6.5°C 19.8°F-6.8°C 98% Calm Calm -- 29.25 in990.5 mb - 0.00 in0.0 mm 0.00 in0.0 mm
05:00 AM 20.3°F-6.5°C 20.1°F-6.6°C 99% Calm Calm -- 29.27 in991.2 mb - 0.00 in0.0 mm 0.00 in0.0 mm
06:00 AM 20.1°F-6.6°C 19.9°F-6.7°C 99% Calm Calm -- 29.26 in990.9 mb - 0.00 in0.0 mm 0.00 in0.0 mm
07:00 AM 20.1°F-6.6°C 19.6°F-6.9°C 98% Calm Calm -- 29.25 in990.5 mb - 0.00 in0.0 mm 0.00 in0.0 mm
08:00 AM 20.7°F-6.3°C 20.2°F-6.6°C 98% Calm Calm -- 29.27 in991.2 mb - 0.00 in0.0 mm 0.00 in0.0 mm
09:00 AM 21.7°F-5.7°C 21.5°F-5.8°C 99% Calm Calm -- 29.27 in991.2 mb - 0.00 in0.0 mm 0.00 in0.0 mm
10:00 AM 23.5°F-4.7°C 23.3°F-4.8°C 99% Calm Calm -- 29.28 in991.5 mb - 0.00 in0.0 mm 0.00 in0.0 mm
11:00 AM 25.0°F-3.9°C 24.5°F-4.2°C 98% Calm Calm -- 29.29 in991.9 mb - 0.00 in0.0 mm 0.00 in0.0 mm
12:00 PM 25.4°F-3.7°C 25.2°F-3.8°C 99% Calm Calm -- 29.30 in992.2 mb - 0.00 in0.0 mm 0.00 in0.0 mm
01:00 PM 25.6°F-3.6°C 25.4°F-3.7°C 99% Calm Calm -- 29.29 in991.9 mb - 0.00 in0.0 mm 0.00 in0.0 mm
02:00 PM 24.8°F-4.0°C 24.3°F-4.3°C 98% Calm Calm -- 29.29 in991.9 mb - 0.00 in0.0 mm 0.00 in0.0 mm
03:00 PM 22.7°F-5.2°C 22.3°F-5.4°C 98% Calm Calm -- 29.29 in991.9 mb - 0.00 in0.0 mm 0.00 in0.0 mm
04:00 PM 21.9°F-5.6°C 21.7°F-5.7°C 99% Calm Calm -- 29.31 in992.6 mb - 0.00 in0.0 mm 0.00 in0.0 mm
05:00 PM 20.8°F-6.2°C 20.6°F-6.3°C 99% Calm Calm -- 29.32 in992.9 mb - 0.00 in0.0 mm 0.00 in0.0 mm
06:00 PM 20.5°F-6.4°C 20.0°F-6.7°C 98% Calm Calm -- 29.37 in994.6 mb - 0.00 in0.0 mm 0.00 in0.0 mm
07:00 PM 20.1°F-6.6°C 19.9°F-6.7°C 99% Calm Calm -- 29.36 in994.2 mb - 0.00 in0.0 mm 0.00 in0.0 mm
08:00 PM 20.1°F-6.6°C 19.9°F-6.7°C 99% Calm Calm -- 29.35 in993.9 mb - 0.00 in0.0 mm 0.00 in0.0 mm
09:00 PM 19.6°F-6.9°C 19.1°F-7.2°C 98% Calm Calm -- 29.36 in994.2 mb - 0.00 in0.0 mm 0.00 in0.0 mm
10:00 PM 19.2°F-7.1°C 19.0°F-7.2°C 99% Calm Calm -- 29.33 in993.2 mb - 0.00 in0.0 mm 0.00 in0.0 mm
11:00 PM 19.2°F-7.1°C 19.0°F-7.2°C 99% Calm Calm -- 29.33 in993.2 mb - 0.00 in0.0 mm 0.00 in0.0 mm